Time;durP1;ratioP1;P1;durP2;ratioP2;P2;SDS_P1;SDS_P2;PMS_P1;PMS_P2;Temp;Humidity;BMP_temperature;BMP_pressure;BME280_temperature;BME280_humidity;BME280_pressure;Samples;Min_cycle;Max_cycle;Signal;HPM_P1;HPM_P2
2021/12/31 00:00:02;;;;;;;1.00;0.47;;;;;;;;;;7395212;19;20006;-77
2021/12/31 00:02:27;;;;;;;0.30;0.25;;;;;;;;;;7393260;19;20142;-77
2021/12/31 00:04:52;;;;;;;1.90;0.70;;;;;;;;;;7392759;19;20573;-77
2021/12/31 00:07:18;;;;;;;0.70;0.57;;;;;;;;;;7391298;19;20343;-77
2021/12/31 00:09:43;;;;;;;1.10;0.50;;;;;;;;;;7389805;19;20007;-76
2021/12/31 00:12:09;;;;;;;0.40;0.40;;;;;;;;;;7391589;19;20019;-77
2021/12/31 00:14:36;;;;;;;2.42;1.85;;;;;;;;;;7392469;19;20003;-76
2021/12/31 00:17:01;;;;;;;1.45;0.82;;;;;;;;;;7391484;19;20514;-77
2021/12/31 00:19:30;;;;;;;1.10;0.60;;;;;;;;;;7391286;19;19998;-76
2021/12/31 00:21:56;;;;;;;0.82;0.47;;;;;;;;;;7394870;19;20002;-76
2021/12/31 00:24:23;;;;;;;0.75;0.70;;;;;;;;;;7390435;19;20010;-77
2021/12/31 00:26:49;;;;;;;1.90;0.73;;;;;;;;;;7396292;19;19999;-77
2021/12/31 00:29:14;;;;;;;1.45;0.60;;;;;;;;;;7391893;19;20001;-77
2021/12/31 00:31:39;;;;;;;2.30;0.88;;;;;;;;;;7392319;19;20104;-76
2021/12/31 00:34:05;;;;;;;0.75;0.50;;;;;;;;;;7392285;19;20001;-77
2021/12/31 00:36:41;;;;;;;0.40;0.40;;;;;;;;;;7391159;19;20034;-77
2021/12/31 00:39:07;;;;;;;0.60;0.50;;;;;;;;;;7390414;19;20006;-76
2021/12/31 00:41:32;;;;;;;0.45;0.40;;;;;;;;;;7391834;19;20332;-76
2021/12/31 00:43:57;;;;;;;0.50;0.30;;;;;;;;;;7392011;19;19994;-76
2021/12/31 00:46:22;;;;;;;2.05;0.57;;;;;;;;;;7391405;19;20402;-77
2021/12/31 00:48:48;;;;;;;1.20;0.50;;;;;;;;;;7390721;19;20014;-76
2021/12/31 00:51:13;;;;;;;0.50;0.40;;;;;;;;;;7390255;19;20003;-77
2021/12/31 00:53:38;;;;;;;1.08;0.40;;;;;;;;;;7390999;19;20070;-76
2021/12/31 00:56:04;;;;;;;3.00;0.50;;;;;;;;;;7390963;19;20472;-76
2021/12/31 00:58:29;;;;;;;0.60;0.50;;;;;;;;;;7390672;19;19998;-76
2021/12/31 01:00:54;;;;;;;0.50;0.50;;;;;;;;;;7389790;19;20009;-77
2021/12/31 01:03:19;;;;;;;1.15;0.43;;;;;;;;;;7391240;19;19994;-76
2021/12/31 01:05:45;;;;;;;0.75;0.45;;;;;;;;;;7391157;19;20005;-76
2021/12/31 01:08:10;;;;;;;1.05;0.40;;;;;;;;;;7389396;19;19991;-77
2021/12/31 01:10:35;;;;;;;1.20;0.52;;;;;;;;;;7391125;19;20062;-77
2021/12/31 01:13:07;;;;;;;2.15;0.45;;;;;;;;;;7390650;19;20474;-76
2021/12/31 01:15:40;;;;;;;3.17;0.70;;;;;;;;;;7392996;19;20013;-77
2021/12/31 01:20:37;;;;;;;0.75;0.65;;;;;;;;;;7389746;19;20018;-77
2021/12/31 01:23:05;;;;;;;0.60;0.60;;;;;;;;;;7393802;19;20003;-76
2021/12/31 01:25:30;;;;;;;0.50;0.50;;;;;;;;;;7390706;19;20007;-76
2021/12/31 01:27:55;;;;;;;0.73;0.60;;;;;;;;;;7388454;19;20023;-76
2021/12/31 01:30:21;;;;;;;0.77;0.50;;;;;;;;;;7389682;19;20033;-76
2021/12/31 01:32:46;;;;;;;1.25;0.47;;;;;;;;;;7390082;19;20006;-76
2021/12/31 01:35:13;;;;;;;1.48;0.57;;;;;;;;;;7389863;19;20003;-77
2021/12/31 01:37:38;;;;;;;0.40;0.30;;;;;;;;;;7388404;19;20007;-77
2021/12/31 01:40:04;;;;;;;0.85;0.50;;;;;;;;;;7388010;19;20019;-76
2021/12/31 01:42:33;;;;;;;0.50;0.50;;;;;;;;;;7390043;19;20002;-77
2021/12/31 01:45:09;;;;;;;0.50;0.50;;;;;;;;;;7388148;19;20007;-77
2021/12/31 01:47:45;;;;;;;0.40;0.40;;;;;;;;;;7388603;19;19999;-77
2021/12/31 01:50:12;;;;;;;0.40;0.40;;;;;;;;;;7388787;19;19999;-76
2021/12/31 01:52:40;;;;;;;0.40;0.40;;;;;;;;;;7389571;19;20010;-76
2021/12/31 01:55:10;;;;;;;0.40;0.40;;;;;;;;;;7392493;19;20087;-77
2021/12/31 01:57:36;;;;;;;3.05;0.50;;;;;;;;;;7387914;19;20009;-76
2021/12/31 02:00:02;;;;;;;0.55;0.55;;;;;;;;;;7388196;19;20470;-77
2021/12/31 02:02:28;;;;;;;0.77;0.50;;;;;;;;;;7389516;19;20026;-76
2021/12/31 02:04:54;;;;;;;0.43;0.40;;;;;;;;;;7388726;19;19998;-77
2021/12/31 02:07:19;;;;;;;1.27;0.40;;;;;;;;;;7391315;19;20003;-77
2021/12/31 02:09:52;;;;;;;0.43;0.43;;;;;;;;;;7392483;19;20027;-77
2021/12/31 02:12:17;;;;;;;0.50;0.50;;;;;;;;;;7389463;19;20333;-77
2021/12/31 02:14:43;;;;;;;1.00;0.75;;;;;;;;;;7388931;19;20010;-77
2021/12/31 02:17:10;;;;;;;1.15;0.57;;;;;;;;;;7387555;19;20371;-77
2021/12/31 02:19:37;;;;;;;0.57;0.50;;;;;;;;;;7388840;19;20446;-77
2021/12/31 02:22:03;;;;;;;0.50;0.38;;;;;;;;;;7390809;19;20023;-76
2021/12/31 02:24:28;;;;;;;0.35;0.32;;;;;;;;;;7388300;19;20070;-76
2021/12/31 02:26:54;;;;;;;0.32;0.32;;;;;;;;;;7388061;19;20443;-77
2021/12/31 02:29:21;;;;;;;0.98;0.30;;;;;;;;;;7388089;19;19995;-76
2021/12/31 02:31:47;;;;;;;1.23;0.85;;;;;;;;;;7390996;19;20296;-76
2021/12/31 02:34:12;;;;;;;0.50;0.50;;;;;;;;;;7396084;19;20013;-76
2021/12/31 02:36:38;;;;;;;2.40;0.47;;;;;;;;;;7394669;19;20004;-77
2021/12/31 02:39:04;;;;;;;0.65;0.40;;;;;;;;;;7394563;19;19995;-76
2021/12/31 02:41:29;;;;;;;1.48;0.50;;;;;;;;;;7393044;19;20532;-77
2021/12/31 02:43:55;;;;;;;0.45;0.45;;;;;;;;;;7395610;19;19995;-76
2021/12/31 02:46:20;;;;;;;0.60;0.50;;;;;;;;;;7394873;19;20461;-77
2021/12/31 02:48:55;;;;;;;0.47;0.47;;;;;;;;;;7392720;19;20014;-77
2021/12/31 02:51:20;;;;;;;0.45;0.40;;;;;;;;;;7395558;19;20001;-77
2021/12/31 02:53:50;;;;;;;1.08;0.60;;;;;;;;;;7395191;19;19995;-77
2021/12/31 02:56:16;;;;;;;0.60;0.60;;;;;;;;;;7398217;19;20054;-77
2021/12/31 02:58:43;;;;;;;1.58;0.60;;;;;;;;;;7398713;19;20030;-76
2021/12/31 03:01:08;;;;;;;1.30;0.50;;;;;;;;;;7392962;19;20002;-77
2021/12/31 03:03:35;;;;;;;0.32;0.32;;;;;;;;;;7394907;19;20029;-77
2021/12/31 03:06:02;;;;;;;0.40;0.40;;;;;;;;;;7394943;19;20005;-76
2021/12/31 03:08:30;;;;;;;0.55;0.35;;;;;;;;;;7394076;19;19990;-76
2021/12/31 03:10:58;;;;;;;0.85;0.50;;;;;;;;;;7394829;19;19987;-77
2021/12/31 03:13:23;;;;;;;0.40;0.28;;;;;;;;;;7394514;19;19991;-76
2021/12/31 03:15:50;;;;;;;0.98;0.52;;;;;;;;;;7394554;19;19991;-77
2021/12/31 03:18:18;;;;;;;0.40;0.40;;;;;;;;;;7393600;19;19998;-77
2021/12/31 03:20:57;;;;;;;0.85;0.60;;;;;;;;;;7392981;19;20030;-77
2021/12/31 03:23:22;;;;;;;0.50;0.43;;;;;;;;;;7398333;19;20003;-77
2021/12/31 03:25:47;;;;;;;1.13;0.70;;;;;;;;;;7393945;19;19993;-76
2021/12/31 03:28:13;;;;;;;1.20;0.47;;;;;;;;;;7393503;19;20466;-76
2021/12/31 03:30:38;;;;;;;0.70;0.50;;;;;;;;;;7394402;19;19998;-76
2021/12/31 03:33:04;;;;;;;0.40;0.40;;;;;;;;;;7393990;19;19995;-77
2021/12/31 03:35:29;;;;;;;0.63;0.43;;;;;;;;;;7394103;19;20010;-76
2021/12/31 03:37:55;;;;;;;0.88;0.40;;;;;;;;;;7391631;19;20027;-75
2021/12/31 03:40:21;;;;;;;0.68;0.35;;;;;;;;;;7391324;19;19999;-76
2021/12/31 03:42:46;;;;;;;1.48;0.50;;;;;;;;;;7391874;19;20003;-76
2021/12/31 03:45:11;;;;;;;1.15;0.40;;;;;;;;;;7394336;19;20450;-76
2021/12/31 03:47:37;;;;;;;2.42;1.70;;;;;;;;;;7395740;19;20022;-76
2021/12/31 03:50:02;;;;;;;0.88;0.60;;;;;;;;;;7396885;19;19999;-76
2021/12/31 03:52:27;;;;;;;0.45;0.30;;;;;;;;;;7393701;19;20002;-77
2021/12/31 03:54:53;;;;;;;0.88;0.47;;;;;;;;;;7392555;19;20022;-77
2021/12/31 03:57:18;;;;;;;0.40;0.40;;;;;;;;;;7392006;19;20324;-77
2021/12/31 03:59:43;;;;;;;0.50;0.50;;;;;;;;;;7392264;19;20091;-77
2021/12/31 04:02:08;;;;;;;0.50;0.50;;;;;;;;;;7393132;19;20346;-76
2021/12/31 04:04:34;;;;;;;1.45;0.60;;;;;;;;;;7393008;19;20147;-77
2021/12/31 04:06:59;;;;;;;0.70;0.30;;;;;;;;;;7391768;19;19999;-76
2021/12/31 04:09:24;;;;;;;0.30;0.30;;;;;;;;;;7391583;19;20116;-77
2021/12/31 04:11:50;;;;;;;0.82;0.50;;;;;;;;;;7392530;19;19997;-77
2021/12/31 04:14:15;;;;;;;1.10;0.60;;;;;;;;;;7392594;19;20011;-77
2021/12/31 04:16:40;;;;;;;1.23;0.63;;;;;;;;;;7391946;19;20005;-77
2021/12/31 04:19:05;;;;;;;0.60;0.43;;;;;;;;;;7391632;19;19990;-77
2021/12/31 04:21:31;;;;;;;0.55;0.55;;;;;;;;;;7392135;19;20058;-76
2021/12/31 04:24:13;;;;;;;1.13;0.57;;;;;;;;;;7391568;19;20372;-77
2021/12/31 04:26:38;;;;;;;1.27;0.93;;;;;;;;;;7391753;19;20026;-77
2021/12/31 04:29:04;;;;;;;0.85;0.77;;;;;;;;;;7391484;19;20509;-77
2021/12/31 04:31:29;;;;;;;0.70;0.70;;;;;;;;;;7392484;19;20015;-77
2021/12/31 04:33:54;;;;;;;0.90;0.65;;;;;;;;;;7392416;19;20010;-77
2021/12/31 04:36:20;;;;;;;0.82;0.63;;;;;;;;;;7395310;19;20003;-76
2021/12/31 04:38:45;;;;;;;0.40;0.40;;;;;;;;;;7394684;19;20497;-77
2021/12/31 04:41:10;;;;;;;0.65;0.65;;;;;;;;;;7390282;19;19995;-77
2021/12/31 04:43:36;;;;;;;0.68;0.50;;;;;;;;;;7391504;19;20454;-76
2021/12/31 04:46:01;;;;;;;0.50;0.50;;;;;;;;;;7391259;19;20062;-77
2021/12/31 04:48:26;;;;;;;0.75;0.50;;;;;;;;;;7391124;19;19994;-77
2021/12/31 04:50:51;;;;;;;0.75;0.60;;;;;;;;;;7391454;19;19995;-76
2021/12/31 04:53:17;;;;;;;0.70;0.70;;;;;;;;;;7390711;19;20697;-77
2021/12/31 04:55:42;;;;;;;0.50;0.50;;;;;;;;;;7390600;19;20458;-77
2021/12/31 04:58:07;;;;;;;0.60;0.60;;;;;;;;;;7388697;19;20006;-76
2021/12/31 05:00:33;;;;;;;0.40;0.40;;;;;;;;;;7389905;19;19998;-77
2021/12/31 05:03:06;;;;;;;0.70;0.70;;;;;;;;;;7391012;19;20026;-77
2021/12/31 05:05:31;;;;;;;0.88;0.60;;;;;;;;;;7391406;19;19994;-77
2021/12/31 05:07:56;;;;;;;1.75;0.73;;;;;;;;;;7389240;19;20002;-77
2021/12/31 05:10:22;;;;;;;0.77;0.77;;;;;;;;;;7389601;19;20422;-77
2021/12/31 05:12:52;;;;;;;0.50;0.50;;;;;;;;;;7390605;19;20015;-77
2021/12/31 05:15:24;;;;;;;0.60;0.60;;;;;;;;;;7390527;19;19995;-77
2021/12/31 05:17:50;;;;;;;1.42;0.80;;;;;;;;;;7388934;19;19994;-77
2021/12/31 05:20:15;;;;;;;0.90;0.60;;;;;;;;;;7389209;19;20002;-76
2021/12/31 05:22:40;;;;;;;0.90;0.68;;;;;;;;;;7393582;19;20108;-77
2021/12/31 05:25:06;;;;;;;1.38;0.80;;;;;;;;;;7391640;19;19994;-77
2021/12/31 05:27:31;;;;;;;0.90;0.73;;;;;;;;;;7392801;19;20002;-77
2021/12/31 05:29:57;;;;;;;1.08;0.93;;;;;;;;;;7389740;19;20375;-77
2021/12/31 05:32:22;;;;;;;2.55;1.20;;;;;;;;;;7390022;19;19992;-76
2021/12/31 05:34:47;;;;;;;1.05;0.88;;;;;;;;;;7389904;19;20489;-77
2021/12/31 05:37:12;;;;;;;0.70;0.70;;;;;;;;;;7388674;19;20495;-77
2021/12/31 05:39:38;;;;;;;1.00;0.90;;;;;;;;;;7388711;19;20019;-77
2021/12/31 05:42:04;;;;;;;0.80;0.80;;;;;;;;;;7390105;19;20442;-76
2021/12/31 05:44:29;;;;;;;0.88;0.63;;;;;;;;;;7389930;19;20627;-77
2021/12/31 05:46:56;;;;;;;0.82;0.82;;;;;;;;;;7388689;19;20006;-76
2021/12/31 05:49:22;;;;;;;2.97;0.85;;;;;;;;;;7388807;19;20020;-76
2021/12/31 05:51:47;;;;;;;0.70;0.70;;;;;;;;;;7389803;19;20017;-76
2021/12/31 05:54:12;;;;;;;0.65;0.50;;;;;;;;;;7389208;19;19995;-76
2021/12/31 05:56:38;;;;;;;0.60;0.60;;;;;;;;;;7388813;19;20003;-77
2021/12/31 05:59:03;;;;;;;0.50;0.50;;;;;;;;;;7388545;19;20550;-77
2021/12/31 06:01:28;;;;;;;0.45;0.45;;;;;;;;;;7387828;19;20022;-76
2021/12/31 06:03:54;;;;;;;1.05;0.95;;;;;;;;;;7388962;19;20064;-77
2021/12/31 06:06:19;;;;;;;5.07;1.15;;;;;;;;;;7389488;19;20473;-76
2021/12/31 06:08:44;;;;;;;0.70;0.70;;;;;;;;;;7395507;19;20010;-77
2021/12/31 06:11:10;;;;;;;1.08;0.57;;;;;;;;;;7396982;19;20364;-76
2021/12/31 06:13:36;;;;;;;2.85;0.70;;;;;;;;;;7397173;19;20058;-76
2021/12/31 06:16:02;;;;;;;0.70;0.35;;;;;;;;;;7399007;19;19995;-75
2021/12/31 06:18:27;;;;;;;0.40;0.40;;;;;;;;;;7395635;19;20015;-77
2021/12/31 06:20:53;;;;;;;3.42;0.82;;;;;;;;;;7394176;19;20001;-76
2021/12/31 06:23:19;;;;;;;1.75;1.45;;;;;;;;;;7400445;19;19998;-76
2021/12/31 06:25:44;;;;;;;1.48;1.27;;;;;;;;;;7396496;19;19990;-76
2021/12/31 06:28:09;;;;;;;2.35;1.80;;;;;;;;;;7392564;19;20002;-77
2021/12/31 06:30:35;;;;;;;1.92;1.30;;;;;;;;;;7395952;19;20025;-76
2021/12/31 06:33:00;;;;;;;1.33;1.23;;;;;;;;;;7396899;19;19991;-76
2021/12/31 06:35:26;;;;;;;4.82;2.20;;;;;;;;;;7395821;19;20461;-76
2021/12/31 06:37:53;;;;;;;2.65;1.40;;;;;;;;;;7393465;19;19994;-76
2021/12/31 06:40:18;;;;;;;0.70;0.70;;;;;;;;;;7393789;19;20015;-76
2021/12/31 06:42:43;;;;;;;0.70;0.70;;;;;;;;;;7395755;19;20002;-77
2021/12/31 06:45:09;;;;;;;1.45;1.00;;;;;;;;;;7395535;19;20012;-76
2021/12/31 06:47:36;;;;;;;2.40;1.00;;;;;;;;;;7393493;19;20025;-76
2021/12/31 06:50:01;;;;;;;3.10;1.35;;;;;;;;;;7394530;19;19990;-75
2021/12/31 06:52:27;;;;;;;1.88;1.30;;;;;;;;;;7395488;19;20490;-75
2021/12/31 06:54:52;;;;;;;6.05;1.45;;;;;;;;;;7394507;19;19990;-75
2021/12/31 06:57:17;;;;;;;7.78;1.90;;;;;;;;;;7393688;19;20019;-75
2021/12/31 06:59:43;;;;;;;1.83;1.25;;;;;;;;;;7394298;19;20001;-76
2021/12/31 07:02:08;;;;;;;2.63;1.02;;;;;;;;;;7395273;19;19994;-76
2021/12/31 07:04:33;;;;;;;2.70;1.23;;;;;;;;;;7397912;19;19995;-76
2021/12/31 07:06:59;;;;;;;7.22;1.42;;;;;;;;;;7396530;19;20019;-76
2021/12/31 07:09:24;;;;;;;2.13;1.20;;;;;;;;;;7393466;19;19998;-76
2021/12/31 07:11:49;;;;;;;4.88;1.55;;;;;;;;;;7394882;19;20004;-76
2021/12/31 07:14:15;;;;;;;8.50;1.45;;;;;;;;;;7395018;19;19986;-76
2021/12/31 07:16:40;;;;;;;6.97;2.30;;;;;;;;;;7393902;19;20009;-76
2021/12/31 07:19:05;;;;;;;3.90;2.28;;;;;;;;;;7393329;19;20009;-76
2021/12/31 07:21:31;;;;;;;1.35;1.25;;;;;;;;;;7393432;19;19999;-76
2021/12/31 07:23:56;;;;;;;4.18;1.40;;;;;;;;;;7393712;19;20103;-75
2021/12/31 07:26:21;;;;;;;7.32;1.70;;;;;;;;;;7392309;19;20079;-76
2021/12/31 07:28:46;;;;;;;2.22;1.52;;;;;;;;;;7393348;19;20489;-77
2021/12/31 07:31:14;;;;;;;5.20;2.55;;;;;;;;;;7394210;19;20017;-75
2021/12/31 07:33:40;;;;;;;2.42;1.48;;;;;;;;;;7394129;19;19999;-76
2021/12/31 07:36:05;;;;;;;3.53;2.13;;;;;;;;;;7393529;19;20006;-76
2021/12/31 07:38:36;;;;;;;12.85;2.38;;;;;;;;;;7392559;19;19999;-76
2021/12/31 07:41:02;;;;;;;3.38;2.10;;;;;;;;;;7392263;19;20088;-76
2021/12/31 07:43:28;;;;;;;14.00;2.13;;;;;;;;;;7393564;19;20002;-75
2021/12/31 07:45:54;;;;;;;21.17;2.50;;;;;;;;;;7393627;19;19994;-76
2021/12/31 07:48:20;;;;;;;9.55;3.38;;;;;;;;;;7392981;19;19995;-76
2021/12/31 07:50:46;;;;;;;5.50;3.42;;;;;;;;;;7395724;19;20477;-76
2021/12/31 07:53:12;;;;;;;19.08;5.40;;;;;;;;;;7393741;19;20019;-76
2021/12/31 07:55:37;;;;;;;18.20;8.07;;;;;;;;;;7397474;19;20473;-76
2021/12/31 07:58:05;;;;;;;5.97;3.40;;;;;;;;;;7390800;19;19998;-76
2021/12/31 08:00:30;;;;;;;6.60;4.03;;;;;;;;;;7391875;19;20010;-76
2021/12/31 08:02:57;;;;;;;6.30;3.67;;;;;;;;;;7393037;19;19994;-77
2021/12/31 08:05:23;;;;;;;5.20;3.35;;;;;;;;;;7393247;19;19999;-76
2021/12/31 08:07:48;;;;;;;4.45;3.03;;;;;;;;;;7390935;19;20003;-76
2021/12/31 08:10:14;;;;;;;4.80;2.28;;;;;;;;;;7391976;19;20003;-75
2021/12/31 08:12:39;;;;;;;4.18;1.60;;;;;;;;;;7393854;19;20062;-76
2021/12/31 08:15:05;;;;;;;6.47;3.03;;;;;;;;;;7392614;19;20528;-76
2021/12/31 08:17:31;;;;;;;5.13;3.05;;;;;;;;;;7391045;19;19998;-75
2021/12/31 08:19:56;;;;;;;2.15;1.65;;;;;;;;;;7391708;19;20087;-76
2021/12/31 08:22:22;;;;;;;2.13;1.52;;;;;;;;;;7394920;19;19994;-75
2021/12/31 08:24:47;;;;;;;2.25;1.40;;;;;;;;;;7392025;19;20458;-76
2021/12/31 08:27:13;;;;;;;3.92;1.58;;;;;;;;;;7391150;19;20015;-76
2021/12/31 08:29:38;;;;;;;1.48;1.30;;;;;;;;;;7389943;19;19998;-76
2021/12/31 08:32:04;;;;;;;2.88;1.67;;;;;;;;;;7392266;19;20003;-76
2021/12/31 08:34:29;;;;;;;1.75;1.63;;;;;;;;;;7392413;19;19997;-75
2021/12/31 08:36:54;;;;;;;2.03;1.58;;;;;;;;;;7391399;19;19998;-76
2021/12/31 08:39:20;;;;;;;1.52;1.42;;;;;;;;;;7390840;19;20006;-76
2021/12/31 08:41:45;;;;;;;1.63;1.33;;;;;;;;;;7390058;19;19991;-76
2021/12/31 08:44:10;;;;;;;1.88;1.40;;;;;;;;;;7393935;19;20079;-75
2021/12/31 08:46:36;;;;;;;3.13;2.00;;;;;;;;;;7395162;19;20016;-76
2021/12/31 08:49:02;;;;;;;2.33;1.65;;;;;;;;;;7390992;19;20015;-75
2021/12/31 08:51:27;;;;;;;2.65;1.85;;;;;;;;;;7391388;19;20347;-76
2021/12/31 08:53:54;;;;;;;3.35;1.83;;;;;;;;;;7390806;19;20006;-75
2021/12/31 08:56:19;;;;;;;2.47;1.83;;;;;;;;;;7390742;19;20006;-76
2021/12/31 09:02:07;;;;;;;1.90;1.38;;;;;;;;;;7394191;19;19996;-75
2021/12/31 09:04:33;;;;;;;1.88;1.73;;;;;;;;;;7391504;19;20002;-76
2021/12/31 09:06:58;;;;;;;1.85;1.73;;;;;;;;;;7390004;19;20023;-76
2021/12/31 09:09:23;;;;;;;5.45;3.78;;;;;;;;;;7389791;19;19991;-77
2021/12/31 09:11:49;;;;;;;4.65;2.28;;;;;;;;;;7388974;19;20062;-75
2021/12/31 09:14:14;;;;;;;5.57;2.10;;;;;;;;;;7390675;19;19991;-75
2021/12/31 09:16:39;;;;;;;3.03;2.53;;;;;;;;;;7389927;19;20288;-76
2021/12/31 09:19:05;;;;;;;3.63;2.80;;;;;;;;;;7390205;19;20002;-76
2021/12/31 09:21:30;;;;;;;2.55;2.05;;;;;;;;;;7390161;19;20002;-76
2021/12/31 09:23:55;;;;;;;6.90;4.82;;;;;;;;;;7390254;19;20497;-76
2021/12/31 09:26:21;;;;;;;4.05;3.13;;;;;;;;;;7389583;19;20116;-76
2021/12/31 09:28:46;;;;;;;3.67;2.80;;;;;;;;;;7389637;19;19995;-76
2021/12/31 09:31:12;;;;;;;6.65;2.95;;;;;;;;;;7390056;19;20001;-75
2021/12/31 09:33:38;;;;;;;4.80;2.83;;;;;;;;;;7390703;19;20062;-75
2021/12/31 09:36:03;;;;;;;3.60;2.00;;;;;;;;;;7392950;19;20015;-75
2021/12/31 09:38:28;;;;;;;2.63;2.17;;;;;;;;;;7389529;19;19999;-75
2021/12/31 09:40:54;;;;;;;3.80;2.63;;;;;;;;;;7385542;19;20003;-76
2021/12/31 09:43:20;;;;;;;2.42;2.08;;;;;;;;;;7393110;19;20006;-76
2021/12/31 09:45:52;;;;;;;2.13;1.70;;;;;;;;;;7389879;19;20344;-75
2021/12/31 09:48:20;;;;;;;1.58;1.33;;;;;;;;;;7389573;19;19998;-76
2021/12/31 09:50:48;;;;;;;2.28;1.50;;;;;;;;;;7389579;19;20418;-76
2021/12/31 09:53:15;;;;;;;5.32;1.50;;;;;;;;;;7388517;19;20002;-76
2021/12/31 09:55:49;;;;;;;1.73;1.25;;;;;;;;;;7389268;19;19999;-76
2021/12/31 09:58:16;;;;;;;2.88;1.40;;;;;;;;;;7389415;19;20479;-77
2021/12/31 10:00:46;;;;;;;0.90;0.90;;;;;;;;;;7388489;19;20019;-76
2021/12/31 10:03:16;;;;;;;1.55;1.10;;;;;;;;;;7389600;19;19999;-75
2021/12/31 10:05:43;;;;;;;0.93;0.80;;;;;;;;;;7389670;19;19999;-76
2021/12/31 10:08:29;;;;;;;1.70;0.80;;;;;;;;;;7386058;19;20071;-76
2021/12/31 10:11:06;;;;;;;1.45;1.10;;;;;;;;;;7389565;19;20458;-76
2021/12/31 10:13:32;;;;;;;1.50;0.90;;;;;;;;;;7388787;19;20009;-76
2021/12/31 10:15:57;;;;;;;1.67;1.48;;;;;;;;;;7388766;19;19999;-76
2021/12/31 10:18:37;;;;;;;1.48;1.13;;;;;;;;;;7387818;19;20005;-77
2021/12/31 10:21:04;;;;;;;1.58;1.15;;;;;;;;;;7387643;19;20029;-76
2021/12/31 10:23:31;;;;;;;1.63;1.40;;;;;;;;;;7389880;19;20569;-76
2021/12/31 10:26:14;;;;;;;1.42;1.10;;;;;;;;;;7391383;19;19991;-75
2021/12/31 10:28:57;;;;;;;3.22;1.15;;;;;;;;;;7387758;19;20027;-76
2021/12/31 10:31:22;;;;;;;2.35;1.15;;;;;;;;;;7388454;19;20334;-76
2021/12/31 10:33:49;;;;;;;1.40;1.20;;;;;;;;;;7388687;19;20482;-76
2021/12/31 10:36:37;;;;;;;1.98;1.20;;;;;;;;;;7388095;19;19999;-76
2021/12/31 10:39:27;;;;;;;1.10;1.00;;;;;;;;;;7387181;19;20498;-76
2021/12/31 10:42:04;;;;;;;1.10;0.90;;;;;;;;;;7386207;19;20474;-77
2021/12/31 10:44:48;;;;;;;1.35;1.25;;;;;;;;;;7388373;19;20020;-76
2021/12/31 10:47:16;;;;;;;1.30;1.00;;;;;;;;;;7386807;19;20345;-75
2021/12/31 10:49:59;;;;;;;2.40;1.15;;;;;;;;;;7387285;19;19990;-76
2021/12/31 10:52:34;;;;;;;0.80;0.80;;;;;;;;;;7390069;19;20002;-76
2021/12/31 10:55:26;;;;;;;1.08;0.98;;;;;;;;;;7394854;19;19991;-76
2021/12/31 10:58:12;;;;;;;1.13;0.82;;;;;;;;;;7392531;19;19999;-77
2021/12/31 11:00:41;;;;;;;1.52;1.10;;;;;;;;;;7393988;19;19999;-76
2021/12/31 11:03:07;;;;;;;0.77;0.70;;;;;;;;;;7395162;19;20015;-76
2021/12/31 11:05:34;;;;;;;1.15;0.90;;;;;;;;;;7395275;19;20450;-76
2021/12/31 11:08:02;;;;;;;1.42;0.80;;;;;;;;;;7392443;19;20025;-76
2021/12/31 11:10:32;;;;;;;1.15;0.90;;;;;;;;;;7394972;19;19994;-76
2021/12/31 11:12:58;;;;;;;4.30;0.90;;;;;;;;;;7396613;19;19990;-76
2021/12/31 11:15:23;;;;;;;0.63;0.63;;;;;;;;;;7398481;19;20434;-76
2021/12/31 11:17:52;;;;;;;1.20;0.70;;;;;;;;;;7392252;19;20341;-77
2021/12/31 11:20:23;;;;;;;2.40;0.82;;;;;;;;;;7391959;19;19994;-76
2021/12/31 11:22:48;;;;;;;1.00;0.90;;;;;;;;;;7397567;19;20342;-76
2021/12/31 11:25:18;;;;;;;1.45;0.80;;;;;;;;;;7394140;19;19995;-76
2021/12/31 11:27:47;;;;;;;1.27;1.02;;;;;;;;;;7392469;19;20480;-76
2021/12/31 11:30:30;;;;;;;0.52;0.52;;;;;;;;;;7393490;19;19998;-76
2021/12/31 11:33:14;;;;;;;0.90;0.70;;;;;;;;;;7394450;19;20023;-76
2021/12/31 11:35:46;;;;;;;1.27;0.80;;;;;;;;;;7394039;19;20011;-76
2021/12/31 11:38:20;;;;;;;2.03;1.10;;;;;;;;;;7390021;19;20477;-76
2021/12/31 11:40:50;;;;;;;0.77;0.68;;;;;;;;;;7393668;19;19991;-76
2021/12/31 11:43:25;;;;;;;0.80;0.65;;;;;;;;;;7394457;19;20310;-76
2021/12/31 11:46:08;;;;;;;0.73;0.70;;;;;;;;;;7393637;19;20691;-76
2021/12/31 11:48:42;;;;;;;1.67;1.00;;;;;;;;;;7393379;19;19986;-75
2021/12/31 11:51:09;;;;;;;1.42;0.90;;;;;;;;;;7393932;19;20324;-76
2021/12/31 11:53:59;;;;;;;1.05;0.82;;;;;;;;;;7392641;19;19995;-75
2021/12/31 11:56:37;;;;;;;1.13;0.80;;;;;;;;;;7392871;19;20446;-76
2021/12/31 11:59:08;;;;;;;1.92;0.98;;;;;;;;;;7392625;19;20001;-77
2021/12/31 12:01:36;;;;;;;1.30;0.90;;;;;;;;;;7391500;19;20003;-76
2021/12/31 12:04:27;;;;;;;1.88;1.00;;;;;;;;;;7393678;19;20027;-75
2021/12/31 12:06:56;;;;;;;1.48;0.90;;;;;;;;;;7392065;19;20352;-76
2021/12/31 12:09:36;;;;;;;1.13;0.90;;;;;;;;;;7391712;19;19998;-76
2021/12/31 12:12:03;;;;;;;0.82;0.80;;;;;;;;;;7393320;19;19995;-76
2021/12/31 12:14:42;;;;;;;4.50;0.70;;;;;;;;;;7392659;19;20011;-76
2021/12/31 12:17:11;;;;;;;0.80;0.50;;;;;;;;;;7391424;19;20018;-75
2021/12/31 12:19:46;;;;;;;2.15;0.70;;;;;;;;;;7391625;19;20002;-75
2021/12/31 12:22:33;;;;;;;0.63;0.60;;;;;;;;;;7394510;19;19991;-76
2021/12/31 12:25:07;;;;;;;0.73;0.63;;;;;;;;;;7391698;19;20002;-76
2021/12/31 12:27:34;;;;;;;0.53;0.53;;;;;;;;;;7390878;19;20097;-76
2021/12/31 12:30:05;;;;;;;1.15;0.80;;;;;;;;;;7391476;19;20476;-76
2021/12/31 12:32:38;;;;;;;1.55;1.00;;;;;;;;;;7392844;19;20057;-76
2021/12/31 12:35:26;;;;;;;3.30;0.85;;;;;;;;;;7392124;19;20005;-76
2021/12/31 12:37:56;;;;;;;0.73;0.60;;;;;;;;;;7390056;19;20002;-75
2021/12/31 12:40:39;;;;;;;0.90;0.70;;;;;;;;;;7389834;19;20008;-76
2021/12/31 12:43:06;;;;;;;1.13;0.80;;;;;;;;;;7391802;19;20006;-76
2021/12/31 12:45:33;;;;;;;1.20;0.88;;;;;;;;;;7391702;19;20023;-76
2021/12/31 12:47:59;;;;;;;0.73;0.70;;;;;;;;;;7390084;19;20466;-76
2021/12/31 12:50:25;;;;;;;2.08;0.95;;;;;;;;;;7391012;19;19998;-76
2021/12/31 12:52:56;;;;;;;1.23;0.90;;;;;;;;;;7394701;19;20005;-76
2021/12/31 12:55:22;;;;;;;0.77;0.60;;;;;;;;;;7394969;19;20007;-76
2021/12/31 12:57:56;;;;;;;1.35;0.73;;;;;;;;;;7389713;19;20000;-76
2021/12/31 13:00:32;;;;;;;1.35;0.95;;;;;;;;;;7389948;19;20021;-76
2021/12/31 13:03:04;;;;;;;1.33;0.63;;;;;;;;;;7391223;19;20015;-76
2021/12/31 13:05:29;;;;;;;1.83;0.93;;;;;;;;;;7391113;19;20018;-77
2021/12/31 13:07:55;;;;;;;1.30;0.98;;;;;;;;;;7389322;19;20003;-76
2021/12/31 13:10:24;;;;;;;1.35;0.90;;;;;;;;;;7389669;19;19995;-76
2021/12/31 13:12:50;;;;;;;3.42;0.95;;;;;;;;;;7390575;19;20010;-75
2021/12/31 13:15:16;;;;;;;1.52;0.93;;;;;;;;;;7390075;19;20477;-76
2021/12/31 13:18:04;;;;;;;2.03;1.00;;;;;;;;;;7389121;19;20006;-76
2021/12/31 13:20:33;;;;;;;1.15;0.73;;;;;;;;;;7389799;19;20408;-76
2021/12/31 13:23:01;;;;;;;1.25;0.93;;;;;;;;;;7394429;19;19998;-77
2021/12/31 13:25:46;;;;;;;1.45;0.95;;;;;;;;;;7389851;19;20020;-76
2021/12/31 13:28:15;;;;;;;2.00;0.90;;;;;;;;;;7388309;19;20011;-76
2021/12/31 13:31:02;;;;;;;1.73;1.00;;;;;;;;;;7390294;19;20018;-76
2021/12/31 13:33:29;;;;;;;2.08;1.17;;;;;;;;;;7390478;19;19991;-76
2021/12/31 13:36:15;;;;;;;1.30;0.80;;;;;;;;;;7389946;19;20002;-76
2021/12/31 13:38:56;;;;;;;;;;;;;;;;;;7390148;19;20002;-76
2021/12/31 13:41:22;;;;;;;1.48;0.80;;;;;;;;;;7389157;19;19921;-76
2021/12/31 13:44:01;;;;;;;0.63;0.60;;;;;;;;;;7394210;19;19990;-76
2021/12/31 13:46:40;;;;;;;1.48;0.85;;;;;;;;;;7390086;19;20498;-76
2021/12/31 13:49:05;;;;;;;2.20;1.00;;;;;;;;;;7388830;19;20107;-76
2021/12/31 13:51:30;;;;;;;1.73;0.82;;;;;;;;;;7389821;19;20093;-76
2021/12/31 13:53:56;;;;;;;1.85;1.00;;;;;;;;;;7389099;19;20010;-76
2021/12/31 13:56:51;;;;;;;1.48;0.90;;;;;;;;;;7387749;19;20085;-76
2021/12/31 13:59:37;;;;;;;1.05;0.77;;;;;;;;;;7387415;19;20454;-76
2021/12/31 14:02:05;;;;;;;1.25;0.90;;;;;;;;;;7389806;19;20430;-76
2021/12/31 14:04:32;;;;;;;1.60;1.00;;;;;;;;;;7388989;19;20009;-76
2021/12/31 14:07:18;;;;;;;1.42;0.90;;;;;;;;;;7389067;19;20002;-76
2021/12/31 14:09:45;;;;;;;1.55;1.00;;;;;;;;;;7387746;19;20563;-76
2021/12/31 14:12:10;;;;;;;1.25;1.00;;;;;;;;;;7389451;19;20525;-76
2021/12/31 14:14:36;;;;;;;1.77;1.23;;;;;;;;;;7388841;19;20023;-76
2021/12/31 14:17:03;;;;;;;2.45;1.00;;;;;;;;;;7388803;19;20122;-76
2021/12/31 14:19:30;;;;;;;1.67;1.10;;;;;;;;;;7387940;19;20084;-76
2021/12/31 14:21:55;;;;;;;1.45;1.00;;;;;;;;;;7389380;19;20010;-76
2021/12/31 14:24:21;;;;;;;2.13;1.33;;;;;;;;;;7388057;19;19995;-76
2021/12/31 14:26:46;;;;;;;1.77;1.15;;;;;;;;;;7388408;19;20749;-76
2021/12/31 14:29:11;;;;;;;2.70;1.50;;;;;;;;;;7395018;19;20084;-76
2021/12/31 14:31:36;;;;;;;2.40;1.20;;;;;;;;;;7397826;19;19998;-76
2021/12/31 14:34:01;;;;;;;3.10;1.00;;;;;;;;;;7398680;19;19994;-76
2021/12/31 14:36:27;;;;;;;2.10;1.17;;;;;;;;;;7395143;19;20014;-76
2021/12/31 14:38:52;;;;;;;2.78;1.10;;;;;;;;;;7393987;19;19998;-76
2021/12/31 14:41:23;;;;;;;1.27;0.93;;;;;;;;;;7393431;19;20002;-76
2021/12/31 14:43:53;;;;;;;1.27;0.70;;;;;;;;;;7396065;19;20010;-76
2021/12/31 14:46:18;;;;;;;3.30;0.90;;;;;;;;;;7395316;19;20007;-76
2021/12/31 14:48:43;;;;;;;0.88;0.50;;;;;;;;;;7394678;19;20076;-76
2021/12/31 14:51:09;;;;;;;1.50;0.70;;;;;;;;;;7395854;19;20034;-76
2021/12/31 14:53:36;;;;;;;1.20;0.60;;;;;;;;;;7394547;19;19998;-76